Time;durP1;ratioP1;P1;durP2;ratioP2;P2;SDS_P1;SDS_P2;PMS_P1;PMS_P2;Temp;Humidity;BMP_temperature;BMP_pressure;BME280_temperature;BME280_humidity;BME280_pressure;Samples;Min_cycle;Max_cycle;Signal;HPM_P1;HPM_P2
2022/04/23 00:01:35;;;;;;;11.32;9.50;;;11.00;64.50;;;;;;5057071;28;20037;-65
2022/04/23 00:04:00;;;;;;;10.88;9.05;;;11.00;64.50;;;;;;5058328;28;20563;-65
2022/04/23 00:06:26;;;;;;;11.48;9.38;;;10.90;65.40;;;;;;5060734;28;20032;-65
2022/04/23 00:08:52;;;;;;;12.30;9.75;;;10.90;64.60;;;;;;5058306;28;20028;-65
2022/04/23 00:11:17;;;;;;;12.25;10.35;;;10.90;64.80;;;;;;5055673;28;20487;-65
2022/04/23 00:13:43;;;;;;;12.90;10.43;;;10.90;65.00;;;;;;5058520;28;20426;-65
2022/04/23 00:16:10;;;;;;;13.10;10.23;;;10.90;65.10;;;;;;5059232;28;20540;-65
2022/04/23 00:18:36;;;;;;;14.05;10.95;;;10.90;65.20;;;;;;5059813;28;20516;-64
2022/04/23 00:21:03;;;;;;;14.35;11.25;;;10.90;65.50;;;;;;5058771;28;20033;-65
2022/04/23 00:23:31;;;;;;;14.00;11.68;;;10.90;65.70;;;;;;5058052;28;20025;-64
2022/04/23 00:25:58;;;;;;;13.13;10.80;;;10.80;65.70;;;;;;5058512;28;20033;-65
2022/04/23 00:28:24;;;;;;;12.73;10.70;;;10.80;65.80;;;;;;5058423;28;20032;-64
2022/04/23 00:30:52;;;;;;;15.70;11.88;;;10.80;66.00;;;;;;5058330;28;20116;-65
2022/04/23 00:33:18;;;;;;;15.40;11.93;;;10.80;66.30;;;;;;5058154;28;20087;-65
2022/04/23 00:35:45;;;;;;;15.32;12.35;;;10.80;66.50;;;;;;5059290;28;20111;-65
2022/04/23 00:38:10;;;;;;;17.15;13.93;;;10.70;66.60;;;;;;5058716;28;20033;-65
2022/04/23 00:40:39;;;;;;;18.52;15.20;;;10.70;66.90;;;;;;5057903;28;20085;-64
2022/04/23 00:43:10;;;;;;;20.05;16.60;;;10.80;67.60;;;;;;5057626;28;20043;-65
2022/04/23 00:45:36;;;;;;;19.95;16.17;;;10.70;67.80;;;;;;5055141;28;20094;-65
2022/04/23 00:48:02;;;;;;;22.63;17.30;;;10.70;68.30;;;;;;5054894;28;20033;-65
2022/04/23 00:50:28;;;;;;;22.63;17.85;;;10.80;68.80;;;;;;5058133;28;20036;-64
2022/04/23 00:53:02;;;;;;;21.95;18.23;;;10.80;69.00;;;;;;5056630;28;20080;-65
2022/04/23 00:55:31;;;;;;;22.03;18.10;;;10.80;70.60;;;;;;5054577;28;20098;-64
2022/04/23 00:57:58;;;;;;;23.33;19.00;;;10.90;69.20;;;;;;5057029;28;20059;-65
2022/04/23 01:00:24;;;;;;;22.45;18.85;;;10.90;69.50;;;;;;5054988;28;20036;-64
2022/04/23 01:02:53;;;;;;;23.83;18.95;;;10.90;69.60;;;;;;5059709;28;20119;-65
2022/04/23 01:05:20;;;;;;;21.98;18.45;;;10.90;69.70;;;;;;5055292;28;20086;-65
2022/04/23 01:07:45;;;;;;;22.70;18.67;;;11.00;70.00;;;;;;5059506;28;20106;-64
2022/04/23 01:10:11;;;;;;;23.42;19.27;;;11.00;70.00;;;;;;5057263;28;20032;-63
2022/04/23 01:12:38;;;;;;;24.05;19.13;;;11.00;70.20;;;;;;5053540;28;20114;-65
2022/04/23 01:15:04;;;;;;;23.42;19.05;;;11.00;70.40;;;;;;5057556;28;20502;-65
2022/04/23 01:17:30;;;;;;;21.83;18.08;;;11.10;70.50;;;;;;5053099;28;20182;-65
2022/04/23 01:19:56;;;;;;;25.20;20.27;;;11.10;70.60;;;;;;5055426;28;20539;-65
2022/04/23 01:22:25;;;;;;;25.88;21.02;;;11.10;70.60;;;;;;5054660;28;20556;-65
2022/04/23 01:24:54;;;;;;;25.90;20.52;;;11.10;70.70;;;;;;5068902;28;20121;-65
2022/04/23 01:27:24;;;;;;;25.20;20.38;;;11.20;70.70;;;;;;5055965;28;20602;-65
2022/04/23 01:29:50;;;;;;;25.35;20.10;;;11.20;71.00;;;;;;5055694;28;20056;-65
2022/04/23 01:32:15;;;;;;;25.05;20.15;;;11.20;70.60;;;;;;5057838;28;20064;-65
2022/04/23 01:34:41;;;;;;;25.38;20.63;;;11.30;70.70;;;;;;5054292;28;20091;-64
2022/04/23 01:37:08;;;;;;;26.58;20.83;;;11.30;70.80;;;;;;5054846;28;20031;-64
2022/04/23 01:39:34;;;;;;;25.95;20.85;;;11.30;70.70;;;;;;5054527;28;20035;-65
2022/04/23 01:42:00;;;;;;;27.00;21.13;;;11.30;70.80;;;;;;5055947;28;20025;-66
2022/04/23 01:44:26;;;;;;;25.50;20.90;;;11.30;70.70;;;;;;5053041;28;20114;-65
2022/04/23 01:46:51;;;;;;;26.38;21.45;;;11.30;70.90;;;;;;5053765;28;20047;-65
2022/04/23 01:49:17;;;;;;;25.50;20.92;;;11.30;71.10;;;;;;5053224;28;20112;-65
2022/04/23 01:51:42;;;;;;;26.60;21.23;;;11.40;71.10;;;;;;5053102;28;20052;-64
2022/04/23 01:54:08;;;;;;;27.67;21.33;;;11.40;71.30;;;;;;5054056;28;20039;-64
2022/04/23 01:56:34;;;;;;;27.67;21.02;;;11.40;71.10;;;;;;5051710;28;20044;-65
2022/04/23 01:59:00;;;;;;;28.52;22.40;;;11.40;71.30;;;;;;5053894;28;20086;-64
2022/04/23 02:01:25;;;;;;;29.63;22.23;;;11.40;71.30;;;;;;5052260;28;20232;-65
2022/04/23 02:03:51;;;;;;;25.33;20.88;;;11.50;71.30;;;;;;5053065;28;20627;-65
2022/04/23 02:06:17;;;;;;;26.90;21.40;;;11.50;71.20;;;;;;5052963;28;20032;-65
2022/04/23 02:08:43;;;;;;;26.40;20.27;;;11.50;71.20;;;;;;5053308;28;20049;-64
2022/04/23 02:11:09;;;;;;;28.35;22.27;;;11.50;71.10;;;;;;5049321;28;20481;-65
2022/04/23 02:13:34;;;;;;;28.38;22.48;;;11.50;71.10;;;;;;5053338;28;20428;-65
2022/04/23 02:16:03;;;;;;;29.95;22.15;;;11.60;71.20;;;;;;5053457;28;20033;-65
2022/04/23 02:18:29;;;;;;;27.08;21.67;;;11.60;71.30;;;;;;5058127;28;20041;-64
2022/04/23 02:20:55;;;;;;;24.83;20.52;;;11.60;71.30;;;;;;5051779;28;20045;-65
2022/04/23 02:23:20;;;;;;;27.88;21.25;;;11.60;71.30;;;;;;5053060;28;20429;-64
2022/04/23 02:25:46;;;;;;;26.25;21.08;;;11.60;71.20;;;;;;5052375;28;20041;-65
2022/04/23 02:28:12;;;;;;;27.20;21.00;;;11.60;71.20;;;;;;5051885;28;20612;-64
2022/04/23 02:30:38;;;;;;;26.95;20.95;;;11.60;71.10;;;;;;5053065;28;20477;-64
2022/04/23 02:33:04;;;;;;;25.10;20.38;;;11.60;71.00;;;;;;5057595;28;20043;-65
2022/04/23 02:35:30;;;;;;;25.17;20.85;;;11.60;71.00;;;;;;5057376;28;20761;-66
2022/04/23 02:37:57;;;;;;;25.02;20.20;;;11.60;70.90;;;;;;5058558;28;20029;-65
2022/04/23 02:40:23;;;;;;;26.33;19.88;;;11.60;70.90;;;;;;5059613;28;20416;-64
2022/04/23 02:42:51;;;;;;;23.45;18.88;;;11.60;71.00;;;;;;5071521;28;20036;-65
2022/04/23 02:45:17;;;;;;;25.13;20.52;;;11.60;71.00;;;;;;5058340;28;20033;-65
2022/04/23 02:47:51;;;;;;;25.10;20.20;;;11.60;71.00;;;;;;5055912;28;20089;-65
2022/04/23 02:50:25;;;;;;;25.15;19.95;;;11.60;71.70;;;;;;5056319;28;20037;-65
2022/04/23 02:52:51;;;;;;;23.52;18.52;;;11.50;71.50;;;;;;5058424;28;20032;-65
2022/04/23 02:55:17;;;;;;;23.83;19.75;;;11.60;71.10;;;;;;5057420;28;20029;-64
2022/04/23 02:57:43;;;;;;;22.40;18.85;;;11.60;71.30;;;;;;5055887;28;20458;-64
2022/04/23 03:00:10;;;;;;;25.48;20.38;;;11.60;71.30;;;;;;5059102;28;20050;-63
2022/04/23 03:02:37;;;;;;;25.30;21.02;;;11.60;71.30;;;;;;5057286;28;20083;-64
2022/04/23 03:05:05;;;;;;;26.58;20.75;;;11.60;71.30;;;;;;5057602;28;20029;-64
2022/04/23 03:07:31;;;;;;;25.70;20.23;;;11.60;71.40;;;;;;5057541;28;20044;-65
2022/04/23 03:09:57;;;;;;;25.13;20.60;;;11.70;71.40;;;;;;5057569;28;20029;-65
2022/04/23 03:12:23;;;;;;;26.25;20.85;;;11.70;71.40;;;;;;5054997;28;20036;-65
2022/04/23 03:14:48;;;;;;;24.92;20.35;;;11.70;71.30;;;;;;5055765;28;21831;-65
2022/04/23 03:17:14;;;;;;;24.23;19.88;;;11.70;71.30;;;;;;5056514;28;20025;-65
2022/04/23 03:19:39;;;;;;;25.58;20.02;;;11.70;71.20;;;;;;5056521;28;20028;-65
2022/04/23 03:22:05;;;;;;;24.20;19.60;;;11.70;71.20;;;;;;5054925;28;20402;-65
2022/04/23 03:24:30;;;;;;;23.75;19.55;;;11.80;71.10;;;;;;5054949;28;20774;-65
2022/04/23 03:26:56;;;;;;;21.90;18.55;;;11.80;71.10;;;;;;5055962;28;20026;-64
2022/04/23 03:29:22;;;;;;;23.20;18.35;;;11.70;70.80;;;;;;5054703;28;20032;-64
2022/04/23 03:31:50;;;;;;;20.63;17.52;;;11.80;70.80;;;;;;5055289;28;20036;-65
2022/04/23 03:34:16;;;;;;;22.52;17.55;;;11.70;70.70;;;;;;5056217;28;20032;-64
2022/04/23 03:36:41;;;;;;;20.98;17.48;;;11.70;70.70;;;;;;5056048;28;20032;-65
2022/04/23 03:39:07;;;;;;;22.55;18.05;;;11.70;70.60;;;;;;5053456;28;20040;-65
2022/04/23 03:41:34;;;;;;;22.13;18.17;;;11.70;70.60;;;;;;5056175;28;20037;-65
2022/04/23 03:44:00;;;;;;;21.10;17.17;;;11.70;70.60;;;;;;5056710;28;20029;-65
2022/04/23 03:46:25;;;;;;;20.92;17.35;;;11.70;70.60;;;;;;5056223;28;20031;-65
2022/04/23 03:48:51;;;;;;;22.63;17.50;;;11.70;70.40;;;;;;5057172;28;20060;-65
2022/04/23 03:51:17;;;;;;;20.50;17.10;;;11.60;70.30;;;;;;5057610;28;20094;-65
2022/04/23 03:53:42;;;;;;;20.27;17.55;;;11.60;70.30;;;;;;5053804;28;20132;-65
2022/04/23 03:56:09;;;;;;;21.55;17.08;;;11.60;70.60;;;;;;5053718;28;20409;-63
2022/04/23 03:58:35;;;;;;;19.30;16.08;;;11.60;70.40;;;;;;5055950;28;20033;-64
2022/04/23 04:01:00;;;;;;;20.35;16.83;;;11.60;70.40;;;;;;5055601;28;20029;-65
2022/04/23 04:03:27;;;;;;;20.58;16.75;;;11.60;70.60;;;;;;5056280;28;20558;-64
2022/04/23 04:05:53;;;;;;;21.23;17.13;;;11.50;70.50;;;;;;5051793;28;20437;-64
2022/04/23 04:08:19;;;;;;;21.20;16.92;;;11.50;70.40;;;;;;5054366;28;20104;-64
2022/04/23 04:10:45;;;;;;;20.17;16.50;;;11.50;70.70;;;;;;5051329;28;20040;-65
2022/04/23 04:13:11;;;;;;;22.08;16.70;;;11.40;70.60;;;;;;5055108;28;20757;-64
2022/04/23 04:15:38;;;;;;;19.95;15.60;;;11.40;70.60;;;;;;5054493;28;20032;-64
2022/04/23 04:18:06;;;;;;;20.73;16.52;;;11.40;70.70;;;;;;5054619;28;20085;-65
2022/04/23 04:20:32;;;;;;;20.70;16.90;;;11.30;70.60;;;;;;5054299;28;20260;-65
2022/04/23 04:22:57;;;;;;;20.52;16.45;;;11.30;70.40;;;;;;5055868;28;20033;-65
2022/04/23 04:25:23;;;;;;;19.35;16.10;;;11.30;70.50;;;;;;5052472;28;20036;-66
2022/04/23 04:27:49;;;;;;;19.40;15.65;;;11.20;70.60;;;;;;5057779;28;20529;-65
2022/04/23 04:30:15;;;;;;;20.63;16.13;;;11.20;70.70;;;;;;5054966;28;20040;-65
2022/04/23 04:32:41;;;;;;;21.27;16.70;;;11.10;70.90;;;;;;5054586;28;21232;-64
2022/04/23 04:35:09;;;;;;;20.40;16.25;;;11.10;70.90;;;;;;5052640;28;20067;-64
2022/04/23 04:37:35;;;;;;;21.48;16.05;;;11.00;71.00;;;;;;5056663;28;20098;-64
2022/04/23 04:40:01;;;;;;;20.55;15.82;;;11.00;71.10;;;;;;5055109;28;20025;-65
2022/04/23 04:42:27;;;;;;;21.92;17.00;;;11.00;71.20;;;;;;5053660;28;20387;-65
2022/04/23 04:44:52;;;;;;;21.45;16.88;;;11.00;71.20;;;;;;5053786;28;20746;-66
2022/04/23 04:47:18;;;;;;;20.98;16.38;;;11.00;71.30;;;;;;5055513;28;20044;-65
2022/04/23 04:49:44;;;;;;;21.00;15.70;;;10.90;71.30;;;;;;5046617;28;143221;-65
2022/04/23 04:52:10;;;;;;;20.33;15.70;;;10.90;72.00;;;;;;5054808;28;20040;-65
2022/04/23 04:54:35;;;;;;;18.88;14.80;;;10.90;71.20;;;;;;5054504;28;20059;-65
2022/04/23 04:57:02;;;;;;;20.90;15.85;;;10.90;71.20;;;;;;5053176;28;20156;-65
2022/04/23 04:59:31;;;;;;;21.98;16.23;;;10.90;71.40;;;;;;5055076;28;20540;-65
2022/04/23 05:01:58;;;;;;;22.60;16.70;;;10.90;71.50;;;;;;5053660;28;20036;-65
2022/04/23 05:04:24;;;;;;;21.48;16.00;;;10.80;71.70;;;;;;5055728;28;20029;-64
2022/04/23 05:06:49;;;;;;;21.50;16.85;;;10.90;71.70;;;;;;5052611;28;20035;-65
2022/04/23 05:09:15;;;;;;;20.75;15.45;;;10.90;71.70;;;;;;5059254;28;20082;-65
2022/04/23 05:11:41;;;;;;;20.60;15.68;;;10.80;71.60;;;;;;5052483;28;20044;-66
2022/04/23 05:14:07;;;;;;;22.33;16.90;;;10.80;71.60;;;;;;5053420;28;20033;-65
2022/04/23 05:16:32;;;;;;;22.23;15.98;;;10.80;71.70;;;;;;5053688;28;20405;-65
2022/04/23 05:18:58;;;;;;;20.33;15.65;;;10.80;71.60;;;;;;5054964;28;20078;-65
2022/04/23 05:21:24;;;;;;;21.75;15.50;;;10.80;71.90;;;;;;5055448;28;20037;-65
2022/04/23 05:23:49;;;;;;;22.20;16.02;;;10.80;71.90;;;;;;5052689;28;20024;-65
2022/04/23 05:26:15;;;;;;;21.10;15.38;;;10.80;71.90;;;;;;5053745;28;20087;-65
2022/04/23 05:28:41;;;;;;;22.23;16.08;;;10.80;72.00;;;;;;5055439;28;20056;-64
2022/04/23 05:31:08;;;;;;;19.85;15.07;;;10.70;72.00;;;;;;5056458;28;20136;-65
2022/04/23 05:33:35;;;;;;;21.35;15.50;;;10.70;72.00;;;;;;5050614;28;20051;-64
2022/04/23 05:36:01;;;;;;;20.58;15.68;;;10.80;72.00;;;;;;5053206;28;20036;-65
2022/04/23 05:38:27;;;;;;;20.05;14.57;;;10.70;72.00;;;;;;5051130;28;20401;-64
2022/04/23 05:40:53;;;;;;;20.27;15.15;;;10.80;72.10;;;;;;5051780;28;20043;-64
2022/04/23 05:43:18;;;;;;;19.98;15.15;;;10.70;72.10;;;;;;5052883;28;20485;-65
2022/04/23 05:45:44;;;;;;;19.55;14.93;;;10.70;72.20;;;;;;5054340;28;20559;-65
2022/04/23 05:48:10;;;;;;;20.83;15.07;;;10.70;72.10;;;;;;5054269;28;20154;-64
2022/04/23 05:50:36;;;;;;;19.25;15.13;;;10.70;72.30;;;;;;5055119;28;20033;-63
2022/04/23 05:53:02;;;;;;;19.75;15.48;;;10.70;72.20;;;;;;5055913;28;20513;-64
2022/04/23 05:55:28;;;;;;;19.73;14.82;;;10.70;72.10;;;;;;5053503;28;20025;-65
2022/04/23 05:57:54;;;;;;;19.35;14.30;;;10.80;72.00;;;;;;5054583;28;20033;-65
2022/04/23 06:00:20;;;;;;;17.75;13.60;;;10.70;72.70;;;;;;5055132;28;20040;-65
2022/04/23 06:02:46;;;;;;;20.58;14.63;;;10.70;72.00;;;;;;5053703;28;20036;-65
2022/04/23 06:05:12;;;;;;;19.13;14.07;;;10.70;72.00;;;;;;5055171;28;20105;-64
2022/04/23 06:07:38;;;;;;;19.02;14.40;;;10.60;71.90;;;;;;5053243;28;20032;-65
2022/04/23 06:10:04;;;;;;;19.30;14.65;;;10.60;72.10;;;;;;5052485;28;20033;-64
2022/04/23 06:12:31;;;;;;;21.25;15.27;;;10.60;72.20;;;;;;5055299;28;20123;-64
2022/04/23 06:14:57;;;;;;;19.17;14.30;;;10.60;72.10;;;;;;5054209;28;20161;-63
2022/04/23 06:17:28;;;;;;;20.48;14.48;;;10.60;72.10;;;;;;5053879;28;20510;-64
2022/04/23 06:19:58;;;;;;;19.33;14.35;;;10.60;72.40;;;;;;5056203;28;20585;-65
2022/04/23 06:22:23;;;;;;;19.92;14.23;;;10.60;72.30;;;;;;5056669;28;20064;-64
2022/04/23 06:24:50;;;;;;;20.88;15.07;;;10.60;72.10;;;;;;5051742;28;20553;-65
2022/04/23 06:27:16;;;;;;;22.10;15.30;;;10.60;72.20;;;;;;5055648;28;20454;-65
2022/04/23 06:29:42;;;;;;;20.17;15.00;;;10.60;72.30;;;;;;5055490;28;20074;-64
2022/04/23 06:32:09;;;;;;;21.67;15.68;;;10.60;72.30;;;;;;5054766;28;20570;-64
2022/04/23 06:34:35;;;;;;;19.40;14.48;;;10.50;72.40;;;;;;5051335;28;20041;-63
2022/04/23 06:37:01;;;;;;;19.00;14.32;;;10.60;72.50;;;;;;5054954;28;20035;-64
2022/04/23 06:39:27;;;;;;;20.30;14.70;;;10.60;72.40;;;;;;5055913;28;20024;-65
2022/04/23 06:41:52;;;;;;;18.92;14.00;;;10.50;72.20;;;;;;5054927;28;20109;-64
2022/04/23 06:44:18;;;;;;;19.83;14.65;;;10.50;72.10;;;;;;5052852;28;20033;-65
2022/04/23 06:46:44;;;;;;;19.33;14.43;;;10.50;72.10;;;;;;5055896;28;20048;-65
2022/04/23 06:49:11;;;;;;;19.17;13.88;;;10.50;72.30;;;;;;5054468;28;20028;-65
2022/04/23 06:51:37;;;;;;;22.77;14.68;;;10.50;72.30;;;;;;5053374;28;20035;-61
2022/04/23 06:54:06;;;;;;;20.08;14.05;;;10.50;72.40;;;;;;5055725;28;20048;-65
2022/04/23 06:56:32;;;;;;;19.25;14.43;;;10.50;72.50;;;;;;5051746;28;20108;-65
2022/04/23 06:58:58;;;;;;;20.77;15.25;;;10.50;72.60;;;;;;5054028;28;20029;-65
2022/04/23 07:01:24;;;;;;;18.35;14.02;;;10.50;72.60;;;;;;5053071;28;20043;-64
2022/04/23 07:03:49;;;;;;;20.70;15.02;;;10.50;72.60;;;;;;5054892;28;20127;-65
2022/04/23 07:06:16;;;;;;;19.05;14.45;;;10.50;72.60;;;;;;5054846;28;20033;-64
2022/04/23 07:08:44;;;;;;;19.27;14.18;;;10.60;72.80;;;;;;5054207;28;20442;-64
2022/04/23 07:11:09;;;;;;;18.35;13.82;;;10.60;72.60;;;;;;5047396;28;20074;-65
2022/04/23 07:13:36;;;;;;;19.45;14.38;;;10.60;72.60;;;;;;5047454;28;20049;-64
2022/04/23 07:16:03;;;;;;;19.85;14.25;;;10.60;72.60;;;;;;5059029;28;20138;-64
2022/04/23 07:18:30;;;;;;;19.58;14.35;;;10.60;72.50;;;;;;5052111;28;22174;-65
2022/04/23 07:20:55;;;;;;;18.35;14.05;;;10.60;72.60;;;;;;5048901;28;20969;-65
2022/04/23 07:26:08;;;;;;;18.30;13.63;;;10.60;72.50;;;;;;5055020;28;20052;-65
2022/04/23 07:28:35;;;;;;;17.65;13.13;;;10.70;72.40;;;;;;5052071;28;20700;-64
2022/04/23 07:31:00;;;;;;;18.38;13.32;;;10.70;72.50;;;;;;5048716;28;20033;-63
2022/04/23 07:38:55;;;;;;;19.33;13.43;;;10.70;72.20;;;;;;5052006;28;20153;-64
2022/04/23 07:41:21;;;;;;;20.52;13.43;;;10.70;72.20;;;;;;5055295;28;20050;-65
2022/04/23 07:43:46;;;;;;;18.58;13.57;;;10.80;72.30;;;;;;5058953;28;20036;-65
2022/04/23 07:46:12;;;;;;;19.23;13.70;;;10.80;72.30;;;;;;5057484;28;20317;-65
2022/04/23 07:48:38;;;;;;;19.80;14.32;;;10.80;72.20;;;;;;5058985;28;20056;-66
2022/04/23 07:51:03;;;;;;;20.13;14.52;;;10.80;72.00;;;;;;5059712;28;21955;-65
2022/04/23 07:53:29;;;;;;;19.83;14.35;;;10.80;72.00;;;;;;5058674;28;20036;-65
2022/04/23 07:55:55;;;;;;;21.17;15.45;;;10.80;72.10;;;;;;5058123;28;20119;-66
2022/04/23 07:58:21;;;;;;;24.85;16.38;;;10.80;72.10;;;;;;5054857;28;20051;-64
2022/04/23 08:00:46;;;;;;;23.55;16.15;;;10.80;72.10;;;;;;5058482;28;20504;-66
2022/04/23 08:03:12;;;;;;;21.67;15.32;;;10.80;72.10;;;;;;5056994;28;20086;-65
2022/04/23 08:05:38;;;;;;;22.52;16.23;;;10.80;72.00;;;;;;5053269;28;20036;-65
2022/04/23 08:08:04;;;;;;;23.10;16.00;;;10.80;72.10;;;;;;5058110;28;20029;-66
2022/04/23 08:10:30;;;;;;;21.55;15.63;;;10.70;72.10;;;;;;5058778;28;20063;-65
2022/04/23 08:12:56;;;;;;;22.75;15.77;;;10.80;72.30;;;;;;5059178;28;20037;-66
2022/04/23 08:15:22;;;;;;;23.17;16.38;;;10.80;72.40;;;;;;5056076;28;20044;-64
2022/04/23 08:17:48;;;;;;;24.25;16.90;;;10.80;72.30;;;;;;5059247;28;20462;-65
2022/04/23 08:20:13;;;;;;;22.35;16.42;;;10.80;72.30;;;;;;5059955;28;20118;-66
2022/04/23 08:22:39;;;;;;;22.25;15.93;;;10.80;72.40;;;;;;5063951;28;20025;-65
2022/04/23 08:25:05;;;;;;;22.20;16.35;;;10.80;72.40;;;;;;5056376;28;20036;-65
2022/04/23 08:27:45;;;;;;;25.50;17.17;;;10.80;72.40;;;;;;5057549;28;20654;-65
2022/04/23 08:32:55;;;;;;;25.03;17.27;;;10.80;72.30;;;;;;5048261;28;20043;-66
2022/04/23 08:35:20;;;;;;;22.60;16.00;;;10.90;72.30;;;;;;5056733;28;20033;-66
2022/04/23 08:37:46;;;;;;;23.17;17.00;;;10.90;72.30;;;;;;5058208;28;20052;-65
2022/04/23 08:40:13;;;;;;;23.10;16.75;;;10.90;72.50;;;;;;5055959;28;20047;-66
2022/04/23 08:42:39;;;;;;;24.63;16.45;;;10.90;72.40;;;;;;5073989;28;20029;-66
2022/04/23 08:45:07;;;;;;;22.65;16.55;;;10.90;72.30;;;;;;5059210;28;20039;-65
2022/04/23 08:47:36;;;;;;;22.00;15.88;;;10.90;72.40;;;;;;5057614;28;20131;-66
2022/04/23 08:50:04;;;;;;;23.88;16.70;;;11.00;72.50;;;;;;5056667;28;20036;-66
2022/04/23 08:52:32;;;;;;;23.90;16.42;;;11.00;72.30;;;;;;5057020;28;20517;-65
2022/04/23 08:55:02;;;;;;;22.67;16.25;;;11.00;72.50;;;;;;5059045;28;20041;-65
2022/04/23 08:57:31;;;;;;;22.65;16.17;;;11.00;72.30;;;;;;5055595;28;20063;-66
2022/04/23 08:59:57;;;;;;;21.77;15.93;;;11.00;72.20;;;;;;5055252;28;20502;-66
2022/04/23 09:02:24;;;;;;;22.15;16.02;;;11.00;72.20;;;;;;5056444;28;20050;-65
2022/04/23 09:04:50;;;;;;;21.45;16.02;;;11.10;72.20;;;;;;5057758;28;20500;-66
2022/04/23 09:07:27;;;;;;;21.95;16.60;;;11.10;72.10;;;;;;5056533;28;20116;-68
2022/04/23 09:09:55;;;;;;;21.70;15.77;;;11.10;72.50;;;;;;5053729;28;20029;-66
2022/04/23 09:12:25;;;;;;;24.23;16.55;;;11.10;72.10;;;;;;5052921;28;20738;-65
2022/04/23 09:14:53;;;;;;;21.05;15.25;;;11.20;72.10;;;;;;5054884;28;20490;-66
2022/04/23 09:25:42;;;;;;;20.52;14.98;;;11.30;72.40;;;;;;5054701;28;20040;-66
2022/04/23 09:28:20;;;;;;;22.65;15.70;;;11.30;72.00;;;;;;5059149;28;20572;-66
2022/04/23 09:30:48;;;;;;;20.50;15.18;;;11.40;72.30;;;;;;5055893;28;20060;-64
2022/04/23 09:33:14;;;;;;;19.27;14.70;;;11.40;72.00;;;;;;5055914;28;20036;-65
2022/04/23 09:36:02;;;;;;;19.77;15.20;;;11.40;71.80;;;;;;5058823;28;20465;-66
2022/04/23 09:38:29;;;;;;;22.80;16.20;;;11.40;72.10;;;;;;5058004;28;20517;-66
2022/04/23 09:41:15;;;;;;;22.13;15.48;;;11.50;71.80;;;;;;5059662;28;20028;-65
2022/04/23 09:43:42;;;;;;;21.85;15.35;;;11.50;71.80;;;;;;5072629;28;20032;-65
2022/04/23 09:46:09;;;;;;;21.40;15.15;;;11.50;71.50;;;;;;5054897;28;20127;-66
2022/04/23 09:48:36;;;;;;;21.75;15.23;;;11.50;71.60;;;;;;5055760;28;20056;-65
2022/04/23 09:51:02;;;;;;;21.40;15.43;;;11.50;71.60;;;;;;5055214;28;20435;-66
2022/04/23 09:53:28;;;;;;;23.80;15.43;;;11.50;71.60;;;;;;5052998;28;20040;-66
2022/04/23 09:56:04;;;;;;;20.10;15.25;;;11.60;71.70;;;;;;5054414;28;20448;-66
2022/04/23 09:58:31;;;;;;;22.70;15.25;;;11.60;71.80;;;;;;5055291;28;20402;-65
2022/04/23 10:00:58;;;;;;;20.17;14.63;;;11.60;71.60;;;;;;5055713;28;20029;-65
2022/04/23 10:03:30;;;;;;;19.95;14.70;;;11.70;71.50;;;;;;5053076;28;20199;-65
2022/04/23 10:05:57;;;;;;;19.05;14.52;;;11.70;71.70;;;;;;5056475;28;20071;-66
2022/04/23 10:08:26;;;;;;;18.83;14.35;;;11.70;71.50;;;;;;5055432;28;20388;-66
2022/04/23 10:10:55;;;;;;;20.33;15.05;;;11.80;71.40;;;;;;5023495;28;20433;-65
2022/04/23 10:13:25;;;;;;;19.58;14.57;;;11.80;71.30;;;;;;5055362;28;20056;-65
2022/04/23 10:15:54;;;;;;;21.65;14.82;;;11.80;71.20;;;;;;5057406;28;20405;-66
2022/04/23 10:18:20;;;;;;;20.38;14.85;;;11.80;71.10;;;;;;5056823;28;20567;-65
2022/04/23 10:20:58;;;;;;;19.70;14.77;;;11.90;71.20;;;;;;5056936;28;20520;-65
2022/04/23 10:23:27;;;;;;;19.27;14.30;;;11.90;71.20;;;;;;5058732;28;20101;-65
2022/04/23 10:26:00;;;;;;;22.13;15.00;;;11.90;71.10;;;;;;5058564;28;20044;-65
2022/04/23 10:28:26;;;;;;;19.23;14.55;;;11.90;71.30;;;;;;5055983;28;20126;-66
2022/04/23 10:31:21;;;;;;;19.23;14.75;;;11.90;71.10;;;;;;5057501;28;20051;-65
2022/04/23 10:33:51;;;;;;;18.95;14.20;;;12.00;71.40;;;;;;5044558;28;20524;-64
2022/04/23 10:36:21;;;;;;;19.50;14.63;;;12.00;70.90;;;;;;5056374;28;20028;-65
2022/04/23 10:38:51;;;;;;;19.75;14.73;;;12.00;70.90;;;;;;5056492;28;20554;-66
2022/04/23 10:41:20;;;;;;;20.40;14.65;;;12.00;70.90;;;;;;5053136;28;20741;-65
2022/04/23 10:44:12;;;;;;;21.10;14.75;;;12.00;70.90;;;;;;5057364;28;20079;-66
2022/04/23 10:46:38;;;;;;;18.40;14.02;;;12.10;72.30;;;;;;5052802;28;20044;-65
2022/04/23 10:49:22;;;;;;;27.27;15.93;;;12.10;70.80;;;;;;5054629;28;20041;-66
2022/04/23 10:51:52;;;;;;;18.27;13.97;;;12.10;70.90;;;;;;5057199;28;20112;-66
2022/04/23 10:54:21;;;;;;;18.90;14.32;;;12.20;70.80;;;;;;5060725;28;20440;-65
2022/04/23 10:56:51;;;;;;;21.98;15.85;;;12.20;70.70;;;;;;5060251;28;20573;-65
2022/04/23 10:59:49;;;;;;;20.92;14.98;;;12.20;70.80;;;;;;5060787;28;20029;-66
2022/04/23 11:02:24;;;;;;;19.85;14.60;;;12.30;71.10;;;;;;5059814;28;20128;-65
2022/04/23 11:13:50;;;;;;;17.83;13.88;;;12.40;70.50;;;;;;5056048;28;20039;-65
2022/04/23 11:16:18;;;;;;;17.90;13.18;;;12.40;70.40;;;;;;5057677;28;20028;-66
2022/04/23 11:18:52;;;;;;;17.67;13.30;;;12.50;70.60;;;;;;5056487;28;20037;-63
2022/04/23 11:21:26;;;;;;;17.92;13.23;;;12.50;71.00;;;;;;5056197;28;20047;-65
2022/04/23 11:23:54;;;;;;;18.65;14.05;;;12.50;70.80;;;;;;5056747;28;20115;-65
2022/04/23 11:26:26;;;;;;;18.05;13.50;;;12.60;70.70;;;;;;5057621;28;20654;-66
2022/04/23 11:28:59;;;;;;;17.40;13.18;;;12.60;70.70;;;;;;5041206;28;20056;-66
2022/04/23 11:31:26;;;;;;;17.58;12.75;;;12.70;70.80;;;;;;5055925;28;20086;-65
2022/04/23 11:34:00;;;;;;;18.50;12.75;;;12.70;70.60;;;;;;5055493;28;20091;-65
2022/04/23 11:36:33;;;;;;;18.10;12.82;;;12.80;70.40;;;;;;5057673;28;20048;-65
2022/04/23 11:39:03;;;;;;;20.33;12.65;;;12.80;70.10;;;;;;5059716;28;20509;-66
2022/04/23 11:41:30;;;;;;;16.83;12.73;;;12.90;70.00;;;;;;5057709;28;20078;-66
2022/04/23 11:43:56;;;;;;;15.23;11.85;;;12.90;69.90;;;;;;5056465;28;20508;-65
2022/04/23 11:46:22;;;;;;;17.35;12.10;;;12.90;69.70;;;;;;5058314;28;20051;-66
2022/04/23 11:48:49;;;;;;;15.80;11.95;;;12.90;69.70;;;;;;5059883;28;20051;-66
2022/04/23 11:51:15;;;;;;;16.50;12.23;;;13.00;69.60;;;;;;5056240;28;20417;-65
2022/04/23 11:54:00;;;;;;;17.75;12.20;;;13.00;69.50;;;;;;5055357;28;20140;-66
2022/04/23 11:56:34;;;;;;;16.52;12.13;;;13.10;69.60;;;;;;5059757;28;20033;-65
2022/04/23 11:59:03;;;;;;;15.80;12.27;;;13.10;69.60;;;;;;5060704;28;20062;-65
2022/04/23 12:01:29;;;;;;;15.65;12.25;;;13.10;69.60;;;;;;5054742;28;20429;-65
2022/04/23 12:03:57;;;;;;;16.25;12.60;;;13.20;69.40;;;;;;5056283;28;20036;-66
2022/04/23 12:06:23;;;;;;;16.13;12.27;;;13.20;69.20;;;;;;5059984;28;20029;-65
2022/04/23 12:08:50;;;;;;;17.38;12.70;;;13.30;69.20;;;;;;5058026;28;20109;-66
2022/04/23 12:11:19;;;;;;;18.45;12.20;;;13.40;69.00;;;;;;5059258;28;20246;-65
2022/04/23 12:13:48;;;;;;;16.33;11.85;;;13.40;68.80;;;;;;5059839;28;20040;-65
2022/04/23 12:16:14;;;;;;;15.35;12.02;;;13.40;68.90;;;;;;5058026;28;20525;-65
2022/04/23 12:18:40;;;;;;;16.42;12.68;;;13.50;68.80;;;;;;5057654;28;20032;-65
2022/04/23 12:21:06;;;;;;;16.13;12.65;;;13.50;68.70;;;;;;5057907;28;20094;-66
2022/04/23 12:23:41;;;;;;;16.73;12.45;;;13.60;68.80;;;;;;5054804;28;20028;-65
2022/04/23 12:26:08;;;;;;;;;;;13.70;68.50;;;;;;5059214;28;20379;-66
2022/04/23 12:42:28;;;;;;;17.10;12.30;;;13.90;67.70;;;;;;5056895;28;20039;-66
2022/04/23 12:44:54;;;;;;;15.50;12.30;;;13.90;67.60;;;;;;5055399;28;20064;-65
2022/04/23 12:47:29;;;;;;;18.63;12.55;;;13.90;67.60;;;;;;5039031;28;20506;-65
2022/04/23 12:50:00;;;;;;;17.70;12.40;;;14.00;67.30;;;;;;5055380;28;20036;-65
2022/04/23 12:52:38;;;;;;;16.92;12.63;;;14.00;67.20;;;;;;5054858;28;20036;-66
2022/04/23 12:55:18;;;;;;;16.40;12.50;;;14.00;67.10;;;;;;5042151;28;20029;-65
2022/04/23 12:57:45;;;;;;;15.05;12.32;;;14.10;67.10;;;;;;5056656;28;20536;-65
2022/04/23 13:00:16;;;;;;;15.73;12.50;;;14.10;67.00;;;;;;5056413;28;20027;-65
2022/04/23 13:02:43;;;;;;;17.20;12.80;;;14.10;66.90;;;;;;5055791;28;20033;-65
2022/04/23 13:05:10;;;;;;;18.65;12.85;;;14.10;66.90;;;;;;5056618;28;20519;-66
2022/04/23 13:10:20;;;;;;;15.57;12.73;;;14.10;67.00;;;;;;5054883;28;20339;-66
2022/04/23 13:12:46;;;;;;;15.18;12.15;;;14.20;67.10;;;;;;5050943;28;20584;-65
2022/04/23 13:15:12;;;;;;;14.40;12.27;;;14.20;67.10;;;;;;5051455;28;20033;-65